createdAt,value
2023-04-16T00:01:12.149Z,6.50
2023-04-16T00:03:38.922Z,7.20
2023-04-16T00:06:05.698Z,9.27
2023-04-16T00:08:32.131Z,8.35
2023-04-16T00:10:58.763Z,11.10
2023-04-16T00:13:26.989Z,13.00
2023-04-16T00:15:53.446Z,7.23
2023-04-16T00:18:21.216Z,5.70
2023-04-16T00:20:49.084Z,7.20
2023-04-16T00:23:15.544Z,8.90
2023-04-16T00:25:45.095Z,6.90
2023-04-16T00:28:14.605Z,6.30
2023-04-16T00:30:45.007Z,8.40
2023-04-16T00:33:11.771Z,14.47
2023-04-16T00:35:38.263Z,8.63
2023-04-16T00:38:04.730Z,9.73
2023-04-16T00:40:31.401Z,8.97
2023-04-16T00:42:57.848Z,7.43
2023-04-16T00:45:24.329Z,12.07
2023-04-16T00:47:51.012Z,9.30
2023-04-16T00:50:17.785Z,9.57
2023-04-16T00:52:48.729Z,8.83
2023-04-16T00:55:17.645Z,11.37
2023-04-16T00:57:46.876Z,9.83
2023-04-16T01:00:16.708Z,10.50
2023-04-16T01:02:45.674Z,12.17
2023-04-16T01:05:12.418Z,12.40
2023-04-16T01:07:39.692Z,11.73
2023-04-16T01:10:06.754Z,14.10
2023-04-16T01:12:33.194Z,15.77
2023-04-16T01:14:59.775Z,14.30
2023-04-16T01:17:26.315Z,10.20
2023-04-16T01:19:52.855Z,16.60
2023-04-16T01:22:19.340Z,9.97
2023-04-16T01:24:48.593Z,12.70
2023-04-16T01:27:18.777Z,9.33
2023-04-16T01:29:49.222Z,15.83
2023-04-16T01:32:18.153Z,14.40
2023-04-16T01:34:46.894Z,11.50
2023-04-16T01:37:13.476Z,12.20
2023-04-16T01:39:39.897Z,11.10
2023-04-16T01:42:06.332Z,12.13
2023-04-16T01:44:32.811Z,15.00
2023-04-16T01:46:59.356Z,9.63
2023-04-16T01:49:25.931Z,14.83
2023-04-16T01:51:53.001Z,11.23
2023-04-16T01:54:19.536Z,16.17
2023-04-16T01:56:49.022Z,12.23
2023-04-16T01:59:16.199Z,11.90
2023-04-16T02:01:43.301Z,9.93
2023-04-16T02:04:10.520Z,7.65
2023-04-16T02:06:37.268Z,9.93
2023-04-16T02:09:03.964Z,10.95
2023-04-16T02:11:30.559Z,15.37
2023-04-16T02:13:56.995Z,9.15
2023-04-16T02:16:24.099Z,10.52
2023-04-16T02:18:50.713Z,13.10
2023-04-16T02:21:18.622Z,9.13
2023-04-16T02:23:48.180Z,11.15
2023-04-16T02:26:14.635Z,12.07
2023-04-16T02:28:41.049Z,12.35
2023-04-16T02:31:07.553Z,13.32
2023-04-16T02:33:35.857Z,12.43
2023-04-16T02:36:02.376Z,10.90
2023-04-16T02:38:28.810Z,13.63
2023-04-16T02:40:55.225Z,10.15
2023-04-16T02:43:21.939Z,10.88
2023-04-16T02:45:49.539Z,14.88
2023-04-16T02:48:16.034Z,12.38
2023-04-16T02:50:42.486Z,9.43
2023-04-16T02:53:10.530Z,9.40
2023-04-16T02:55:37.029Z,11.23
2023-04-16T02:58:03.488Z,13.68
2023-04-16T03:00:29.974Z,8.38
2023-04-16T03:02:56.535Z,12.75
2023-04-16T03:05:23.123Z,14.13
2023-04-16T03:07:50.726Z,18.67
2023-04-16T03:10:17.260Z,14.25
2023-04-16T03:12:43.730Z,14.93
2023-04-16T03:15:10.687Z,18.30
2023-04-16T03:17:37.232Z,12.07
2023-04-16T03:20:04.251Z,14.37
2023-04-16T03:22:30.812Z,11.93
2023-04-16T03:24:57.250Z,14.70
2023-04-16T03:27:23.799Z,12.40
2023-04-16T03:29:52.792Z,12.17
2023-04-16T03:32:19.279Z,13.57
2023-04-16T03:34:46.101Z,13.83
2023-04-16T03:37:12.643Z,16.67
2023-04-16T03:39:39.150Z,12.70
2023-04-16T03:42:05.830Z,15.03
2023-04-16T03:44:32.285Z,16.20
2023-04-16T03:46:58.981Z,27.50
2023-04-16T03:49:25.879Z,19.20
2023-04-16T03:51:55.022Z,17.80
2023-04-16T03:54:23.018Z,16.20
2023-04-16T03:56:49.832Z,21.90
2023-04-16T03:59:16.322Z,13.17
2023-04-16T04:01:42.757Z,14.87
2023-04-16T04:04:09.783Z,16.73
2023-04-16T04:06:36.477Z,17.45
2023-04-16T04:09:03.280Z,19.23
2023-04-16T04:11:29.845Z,13.93
2023-04-16T04:13:56.276Z,16.38
2023-04-16T04:16:25.445Z,18.42
2023-04-16T04:18:52.048Z,17.00
2023-04-16T04:21:18.476Z,18.63
2023-04-16T04:23:44.992Z,18.53
2023-04-16T04:26:11.472Z,22.33
2023-04-16T04:28:38.021Z,18.77
2023-04-16T04:31:04.553Z,22.60
2023-04-16T04:33:31.243Z,20.37
2023-04-16T04:35:57.770Z,20.43
2023-04-16T04:38:25.535Z,19.47
2023-04-16T04:40:53.036Z,14.30
2023-04-16T04:43:22.463Z,19.87
2023-04-16T04:45:49.310Z,17.70
2023-04-16T04:48:16.269Z,17.37
2023-04-16T04:50:43.110Z,23.98
2023-04-16T04:53:14.790Z,17.90
2023-04-16T04:55:41.517Z,14.77
2023-04-16T04:58:08.606Z,18.60
2023-04-16T05:00:36.348Z,18.90
2023-04-16T05:03:05.927Z,13.70
2023-04-16T05:05:32.694Z,16.50
2023-04-16T05:07:59.232Z,15.10
2023-04-16T05:10:28.632Z,18.23
2023-04-16T05:12:58.373Z,14.73
2023-04-16T05:15:28.618Z,20.43
2023-04-16T05:17:57.893Z,15.33
2023-04-16T05:20:27.221Z,16.80
2023-04-16T05:22:58.244Z,20.30
2023-04-16T05:25:28.109Z,16.23
2023-04-16T05:27:57.335Z,16.37
2023-04-16T05:30:25.872Z,19.07
2023-04-16T05:32:52.397Z,14.63
2023-04-16T05:35:19.001Z,22.80
2023-04-16T05:37:45.579Z,18.35
2023-04-16T05:40:14.031Z,14.88
2023-04-16T05:42:40.527Z,16.60
2023-04-16T05:45:07.507Z,16.52
2023-04-16T05:47:34.022Z,13.93
2023-04-16T05:50:00.559Z,22.10
2023-04-16T05:52:27.018Z,19.60
2023-04-16T05:54:53.443Z,25.97
2023-04-16T05:57:19.920Z,15.53
2023-04-16T05:59:46.421Z,16.50
2023-04-16T06:02:13.056Z,17.20
2023-04-16T06:04:39.777Z,20.07
2023-04-16T06:07:06.216Z,13.90
2023-04-16T06:09:32.624Z,15.10
2023-04-16T06:11:59.779Z,17.80
2023-04-16T06:14:26.616Z,18.60
2023-04-16T06:16:53.132Z,14.57
2023-04-16T06:19:19.653Z,15.37
2023-04-16T06:21:46.208Z,14.40
2023-04-16T06:24:13.360Z,17.50
2023-04-16T06:26:39.931Z,16.25
2023-04-16T06:29:06.445Z,16.77
2023-04-16T06:31:33.064Z,16.75
2023-04-16T06:33:59.634Z,15.43
2023-04-16T06:36:27.571Z,17.20
2023-04-16T06:38:54.262Z,11.17
2023-04-16T06:41:22.714Z,13.90
2023-04-16T06:43:49.522Z,15.37
2023-04-16T06:46:16.038Z,16.70
2023-04-16T06:48:42.588Z,13.68
2023-04-16T06:51:09.180Z,16.97
2023-04-16T06:53:37.578Z,20.03
2023-04-16T06:56:04.622Z,15.00
2023-04-16T06:58:31.216Z,18.25
2023-04-16T07:00:57.848Z,18.30
2023-04-16T07:03:28.096Z,19.83
2023-04-16T07:05:57.633Z,17.87
2023-04-16T07:08:27.657Z,16.30
2023-04-16T07:10:54.831Z,19.00
2023-04-16T07:13:21.816Z,21.85
2023-04-16T07:15:48.360Z,15.30
2023-04-16T07:18:14.838Z,17.45
2023-04-16T07:20:41.340Z,18.73
2023-04-16T07:23:07.835Z,20.87
2023-04-16T07:25:34.325Z,12.37
2023-04-16T07:28:00.775Z,16.88
2023-04-16T07:30:32.744Z,15.38
2023-04-16T07:32:59.650Z,16.15
2023-04-16T07:35:27.635Z,20.35
2023-04-16T07:37:56.204Z,18.25
2023-04-16T07:40:26.871Z,15.48
2023-04-16T07:42:57.611Z,12.35
2023-04-16T07:45:26.807Z,19.92
2023-04-16T07:47:53.345Z,14.77
2023-04-16T07:50:19.847Z,13.10
2023-04-16T07:52:47.305Z,15.50
2023-04-16T07:55:13.856Z,22.50
2023-04-16T07:57:41.634Z,17.33
2023-04-16T08:00:11.413Z,17.90
2023-04-16T08:02:38.553Z,19.45
2023-04-16T08:05:05.619Z,18.60
2023-04-16T08:07:34.394Z,18.53
2023-04-16T08:10:01.375Z,17.85
2023-04-16T08:12:29.058Z,14.98
2023-04-16T08:14:58.607Z,17.02
2023-04-16T08:17:28.375Z,18.85
2023-04-16T08:19:59.348Z,24.13
2023-04-16T08:22:29.071Z,17.70
2023-04-16T08:24:58.609Z,17.85
2023-04-16T08:27:26.645Z,14.73
2023-04-16T08:29:53.116Z,18.85
2023-04-16T08:32:19.629Z,22.05
2023-04-16T08:34:46.289Z,17.02
2023-04-16T08:37:12.815Z,14.13
2023-04-16T08:39:39.270Z,14.63
2023-04-16T08:42:10.031Z,15.25
2023-04-16T08:44:42.114Z,13.02
2023-04-16T08:47:11.434Z,13.80
2023-04-16T08:49:43.686Z,15.90
2023-04-16T08:52:15.609Z,16.30
2023-04-16T08:54:56.684Z,20.20
2023-04-16T08:57:26.868Z,19.85
2023-04-16T08:59:59.099Z,14.68
2023-04-16T09:02:27.061Z,17.38
2023-04-16T09:04:58.230Z,16.63
2023-04-16T09:07:27.518Z,17.70
2023-04-16T09:09:59.805Z,13.00
2023-04-16T09:12:27.248Z,15.63
2023-04-16T09:14:54.606Z,18.70
2023-04-16T09:17:21.314Z,13.48
2023-04-16T09:19:48.328Z,13.23
2023-04-16T09:22:15.127Z,15.02
2023-04-16T09:24:42.169Z,16.52
2023-04-16T09:27:09.354Z,11.60
2023-04-16T09:29:40.851Z,10.52
2023-04-16T09:32:09.695Z,10.30
2023-04-16T09:35:00.673Z,13.57
2023-04-16T09:37:31.215Z,14.38
2023-04-16T09:40:03.946Z,11.02
2023-04-16T09:42:32.600Z,11.43
2023-04-16T09:45:01.390Z,10.50
2023-04-16T09:47:42.812Z,6.97
2023-04-16T09:50:12.630Z,9.77
2023-04-16T09:52:39.737Z,7.80
2023-04-16T09:55:06.826Z,8.88
2023-04-16T09:57:33.328Z,9.73
2023-04-16T10:00:05.612Z,10.13
2023-04-16T10:02:34.692Z,7.03
2023-04-16T10:05:03.086Z,6.25
2023-04-16T10:07:33.169Z,11.25
2023-04-16T10:10:02.967Z,6.22
2023-04-16T10:12:30.700Z,4.10
2023-04-16T10:15:00.335Z,6.30
2023-04-16T10:17:29.936Z,6.97
2023-04-16T10:19:58.231Z,6.72
2023-04-16T10:22:27.764Z,4.70
2023-04-16T10:24:58.565Z,3.92
2023-04-16T10:27:26.928Z,5.57
2023-04-16T10:29:56.591Z,9.80
2023-04-16T10:32:28.730Z,7.78
2023-04-16T10:34:56.824Z,8.05
2023-04-16T10:37:31.352Z,6.28
2023-04-16T10:40:01.341Z,7.45
2023-04-16T10:42:28.067Z,5.38
2023-04-16T10:44:55.192Z,5.93
2023-04-16T10:47:28.045Z,4.82
2023-04-16T10:49:57.312Z,6.18
2023-04-16T10:52:28.285Z,4.78
2023-04-16T10:54:56.414Z,7.30
2023-04-16T10:57:22.839Z,4.70
2023-04-16T10:59:49.490Z,9.15
2023-04-16T11:02:18.824Z,4.53
2023-04-16T11:04:47.868Z,5.43
2023-04-16T11:07:48.927Z,6.43
2023-04-16T11:10:16.538Z,4.28
2023-04-16T11:12:46.327Z,4.60
2023-04-16T11:15:16.450Z,5.95
2023-04-16T11:17:44.871Z,4.82
2023-04-16T11:20:28.362Z,4.70
2023-04-16T11:22:57.184Z,5.78
2023-04-16T11:25:36.039Z,4.70
2023-04-16T11:28:02.678Z,3.50
2023-04-16T11:30:34.670Z,4.40
2023-04-16T11:33:19.070Z,4.22
2023-04-16T11:35:58.181Z,3.35
2023-04-16T11:38:38.783Z,4.43
2023-04-16T11:41:05.629Z,7.57
2023-04-16T11:43:32.561Z,3.17
2023-04-16T11:46:07.474Z,3.55
2023-04-16T11:48:47.930Z,4.78
2023-04-16T11:51:14.990Z,3.30
2023-04-16T11:53:49.701Z,3.28
2023-04-16T11:56:17.497Z,3.25
2023-04-16T11:58:43.986Z,3.78
2023-04-16T12:01:10.952Z,3.20
2023-04-16T12:03:39.472Z,3.95
2023-04-16T12:06:10.445Z,3.70
2023-04-16T12:08:36.972Z,4.55
2023-04-16T12:11:03.576Z,8.38
2023-04-16T12:13:30.697Z,3.53
2023-04-16T12:15:57.512Z,4.35
2023-04-16T12:18:28.591Z,6.05
2023-04-16T12:20:55.468Z,3.88
2023-04-16T12:23:33.941Z,6.13
2023-04-16T12:26:10.827Z,4.07
2023-04-16T12:28:41.616Z,3.60
2023-04-16T12:31:08.507Z,7.93
2023-04-16T12:33:35.159Z,3.55
2023-04-16T12:36:03.628Z,3.55
2023-04-16T12:38:30.240Z,4.28
2023-04-16T12:41:00.838Z,5.03
2023-04-16T12:43:30.957Z,3.97
2023-04-16T12:45:58.559Z,5.78
2023-04-16T12:48:25.152Z,5.63
2023-04-16T12:50:53.880Z,4.85
2023-04-16T12:53:20.459Z,3.20
2023-04-16T12:55:47.045Z,6.20
2023-04-16T12:58:13.773Z,3.80
2023-04-16T13:00:40.574Z,3.75
2023-04-16T13:03:07.232Z,3.35
2023-04-16T13:05:34.170Z,5.65
2023-04-16T13:08:00.802Z,3.60
2023-04-16T13:10:30.562Z,6.00
2023-04-16T13:12:57.010Z,2.90
2023-04-16T13:15:23.439Z,4.30
2023-04-16T13:17:49.927Z,7.35
2023-04-16T13:20:16.516Z,3.75
2023-04-16T13:22:43.276Z,3.35
2023-04-16T13:25:09.947Z,4.18
2023-04-16T13:27:36.428Z,4.97
2023-04-16T13:30:02.969Z,4.80
2023-04-16T13:32:33.191Z,3.60
2023-04-16T13:35:02.394Z,5.00
2023-04-16T13:37:32.819Z,4.18
2023-04-16T13:40:02.677Z,2.97
2023-04-16T13:42:33.255Z,3.45
2023-04-16T13:45:03.247Z,9.77
2023-04-16T13:47:32.790Z,3.00
2023-04-16T13:50:02.921Z,5.03
2023-04-16T13:52:36.872Z,5.75
2023-04-16T13:55:03.908Z,3.63
2023-04-16T13:57:33.338Z,3.30
2023-04-16T14:00:03.362Z,5.80
2023-04-16T14:02:32.909Z,3.50
2023-04-16T14:05:02.292Z,7.40
2023-04-16T14:07:32.940Z,7.20
2023-04-16T14:10:02.438Z,4.28
2023-04-16T14:12:31.363Z,5.85
2023-04-16T14:14:58.314Z,3.42
2023-04-16T14:17:24.925Z,3.88
2023-04-16T14:19:54.438Z,7.85
2023-04-16T14:22:21.102Z,10.93
2023-04-16T14:24:47.579Z,4.90
2023-04-16T14:27:14.235Z,5.78
2023-04-16T14:29:41.516Z,5.95
2023-04-16T14:32:11.592Z,5.45
2023-04-16T14:34:38.107Z,4.88
2023-04-16T14:37:05.606Z,5.85
2023-04-16T14:39:32.170Z,2.35
2023-04-16T14:41:59.935Z,5.53
2023-04-16T14:44:26.378Z,2.80
2023-04-16T14:46:53.802Z,3.50
2023-04-16T14:49:20.240Z,5.25
2023-04-16T14:51:46.978Z,4.13
2023-04-16T14:54:13.463Z,3.70
2023-04-16T14:56:40.013Z,6.20
2023-04-16T14:59:06.880Z,1.70
2023-04-16T15:01:34.618Z,5.97
2023-04-16T15:04:03.827Z,3.35
2023-04-16T15:06:32.371Z,7.63
2023-04-16T15:09:01.253Z,3.85
2023-04-16T15:11:30.888Z,6.32
2023-04-16T15:13:57.378Z,5.22
2023-04-16T15:16:23.958Z,3.40
2023-04-16T15:18:51.000Z,4.88
2023-04-16T15:21:17.470Z,8.73
2023-04-16T15:23:43.991Z,5.05
2023-04-16T15:26:10.500Z,5.22
2023-04-16T15:28:37.095Z,2.33
2023-04-16T15:31:03.572Z,6.05
2023-04-16T15:33:32.829Z,2.97
2023-04-16T15:36:01.432Z,6.65
2023-04-16T15:38:31.247Z,8.95
2023-04-16T15:41:03.894Z,5.82
2023-04-16T15:43:31.305Z,4.13
2023-04-16T15:45:57.950Z,4.38
2023-04-16T15:48:24.742Z,5.97
2023-04-16T15:50:51.936Z,4.65
2023-04-16T15:53:18.540Z,5.25
2023-04-16T15:55:45.378Z,2.95
2023-04-16T15:58:12.839Z,8.30
2023-04-16T16:00:39.748Z,5.00
2023-04-16T16:03:06.695Z,6.47
2023-04-16T16:05:33.884Z,8.55
2023-04-16T16:08:01.861Z,4.03
2023-04-16T16:10:28.396Z,7.03
2023-04-16T16:12:54.874Z,6.32
2023-04-16T16:15:21.678Z,5.15
2023-04-16T16:17:48.203Z,5.40
2023-04-16T16:20:14.777Z,5.05
2023-04-16T16:22:43.105Z,5.68
2023-04-16T16:25:10.298Z,4.38
2023-04-16T16:27:36.809Z,7.57
2023-04-16T16:30:06.465Z,5.30
2023-04-16T16:32:33.008Z,4.03
2023-04-16T16:35:02.950Z,4.22
2023-04-16T16:37:32.411Z,4.60
2023-04-16T16:40:01.731Z,4.63
2023-04-16T16:42:28.364Z,5.78
2023-04-16T16:44:57.311Z,7.50
2023-04-16T16:47:27.012Z,5.30
2023-04-16T16:49:54.761Z,8.07
2023-04-16T16:52:25.366Z,7.90
2023-04-16T16:54:56.729Z,6.22
2023-04-16T16:57:27.074Z,5.13
2023-04-16T16:59:54.617Z,6.28
2023-04-16T17:02:21.412Z,4.75
2023-04-16T17:04:47.957Z,8.18
2023-04-16T17:07:14.522Z,5.45
2023-04-16T17:09:41.246Z,8.70
2023-04-16T17:12:07.866Z,4.10
2023-04-16T17:14:35.002Z,5.97
2023-04-16T17:17:04.489Z,3.40
2023-04-16T17:19:31.356Z,4.43
2023-04-16T17:22:06.738Z,5.20
2023-04-16T17:24:33.209Z,4.53
2023-04-16T17:27:04.075Z,5.07
2023-04-16T17:29:33.317Z,6.82
2023-04-16T17:32:01.580Z,6.57
2023-04-16T17:34:28.621Z,6.60
2023-04-16T17:36:55.665Z,10.07
2023-04-16T17:39:22.181Z,7.57
2023-04-16T17:41:54.142Z,7.28
2023-04-16T17:44:28.135Z,7.60
2023-04-16T17:46:54.654Z,6.13
2023-04-16T17:49:21.195Z,5.13
2023-04-16T17:55:00.722Z,7.35
2023-04-16T17:57:27.792Z,10.15
2023-04-16T17:59:54.291Z,7.25
2023-04-16T18:05:19.844Z,13.50
2023-04-16T18:07:47.123Z,7.80
2023-04-16T18:10:17.030Z,8.40
2023-04-16T18:12:43.496Z,9.20
2023-04-16T18:15:10.564Z,8.02
2023-04-16T18:18:06.314Z,8.40
2023-04-16T18:20:33.142Z,9.95
2023-04-16T18:23:03.072Z,7.90
2023-04-16T18:25:34.873Z,9.50
2023-04-16T18:28:03.593Z,8.57
2023-04-16T18:30:34.667Z,11.63
2023-04-16T18:33:21.363Z,6.03
2023-04-16T18:35:50.903Z,7.72
2023-04-16T18:38:17.380Z,9.27
2023-04-16T18:40:43.821Z,7.93
2023-04-16T18:43:10.365Z,9.00
2023-04-16T18:45:37.049Z,8.00
2023-04-16T18:48:04.221Z,8.88
2023-04-16T18:50:33.667Z,7.57
2023-04-16T18:53:02.794Z,8.35
2023-04-16T18:55:32.920Z,10.98
2023-04-16T18:58:00.702Z,10.40
2023-04-16T19:00:27.411Z,12.60
2023-04-16T19:02:53.973Z,9.93
2023-04-16T19:05:21.253Z,9.38
2023-04-16T19:07:47.800Z,11.82
2023-04-16T19:10:14.467Z,10.32
2023-04-16T19:12:41.309Z,9.55
2023-04-16T19:15:08.113Z,9.50
2023-04-16T19:17:34.636Z,11.32
2023-04-16T19:20:10.505Z,9.55
2023-04-16T19:22:38.173Z,9.35
2023-04-16T19:25:06.080Z,9.63
2023-04-16T19:27:33.032Z,9.75
2023-04-16T19:30:02.350Z,11.45
2023-04-16T19:32:28.960Z,8.63
2023-04-16T19:34:55.450Z,8.13
2023-04-16T19:37:21.985Z,8.60
2023-04-16T19:39:48.485Z,10.70
2023-04-16T19:42:14.912Z,10.38
2023-04-16T19:44:41.435Z,11.05
2023-04-16T19:47:07.917Z,10.07
2023-04-16T19:49:34.677Z,11.02
2023-04-16T19:52:04.596Z,7.07
2023-04-16T19:54:34.751Z,13.13
2023-04-16T19:57:06.252Z,9.25
2023-04-16T19:59:33.043Z,11.43
2023-04-16T20:02:01.741Z,10.73
2023-04-16T20:04:28.431Z,14.65
2023-04-16T20:06:55.392Z,8.93
2023-04-16T20:13:35.191Z,7.25
2023-04-16T20:16:32.383Z,9.02
2023-04-16T20:19:04.681Z,12.18
2023-04-16T20:21:38.433Z,16.63
2023-04-16T20:24:05.057Z,9.85
2023-04-16T20:26:34.731Z,9.50
2023-04-16T20:29:04.163Z,10.75
2023-04-16T20:31:31.510Z,8.10
2023-04-16T20:33:58.096Z,9.95
2023-04-16T20:36:24.548Z,8.18
2023-04-16T20:38:53.833Z,8.18
2023-04-16T20:41:21.306Z,9.55
2023-04-16T20:43:50.187Z,15.98
2023-04-16T20:46:17.669Z,14.98
2023-04-16T20:48:44.623Z,12.85
2023-04-16T20:51:11.103Z,10.93
2023-04-16T20:53:38.341Z,12.80
2023-04-16T20:56:05.382Z,13.23
2023-04-16T20:58:34.466Z,10.38
2023-04-16T21:01:01.025Z,12.68
2023-04-16T21:03:27.709Z,17.20
2023-04-16T21:05:55.582Z,11.95
2023-04-16T21:08:23.308Z,10.05
2023-04-16T21:10:50.550Z,9.05
2023-04-16T21:13:17.203Z,9.38
2023-04-16T21:15:44.684Z,9.57
2023-04-16T21:18:11.763Z,14.80
2023-04-16T21:20:39.418Z,14.55
2023-04-16T21:23:06.328Z,11.38
2023-04-16T21:25:33.958Z,13.75
2023-04-16T21:28:00.554Z,15.32
2023-04-16T21:30:27.087Z,23.48
2023-04-16T21:32:53.577Z,17.90
2023-04-16T21:35:20.211Z,17.48
2023-04-16T21:37:46.918Z,16.27
2023-04-16T21:40:13.622Z,13.20
2023-04-16T21:42:42.104Z,10.27
2023-04-16T21:45:09.987Z,12.85
2023-04-16T21:47:37.002Z,10.80
2023-04-16T21:50:06.323Z,8.95
2023-04-16T21:52:33.149Z,9.05
2023-04-16T21:55:00.608Z,9.00
2023-04-16T21:57:27.105Z,8.93
2023-04-16T21:59:53.624Z,8.38
2023-04-16T22:02:20.518Z,12.77
2023-04-16T22:04:47.289Z,10.20
2023-04-16T22:07:13.828Z,13.48
2023-04-16T22:09:40.844Z,8.70
2023-04-16T22:12:10.502Z,9.02
2023-04-16T22:14:46.215Z,10.85
2023-04-16T22:17:17.166Z,13.38
2023-04-16T22:19:44.563Z,11.25
2023-04-16T22:22:11.013Z,14.57
2023-04-16T22:24:40.497Z,10.90
2023-04-16T22:27:09.881Z,10.35
2023-04-16T22:29:39.635Z,14.20
2023-04-16T22:32:06.330Z,10.98
2023-04-16T22:34:32.863Z,15.18
2023-04-16T22:37:01.412Z,10.43
2023-04-16T22:39:28.611Z,12.57
2023-04-16T22:41:56.048Z,10.18
2023-04-16T22:44:22.539Z,11.48
2023-04-16T22:46:49.042Z,9.38
2023-04-16T22:49:15.481Z,11.63
2023-04-16T22:51:42.560Z,15.55
2023-04-16T22:54:13.665Z,10.30
2023-04-16T22:56:40.988Z,10.48
2023-04-16T22:59:10.230Z,9.32
2023-04-16T23:01:37.311Z,14.07
2023-04-16T23:04:04.166Z,10.23
2023-04-16T23:06:31.430Z,9.82
2023-04-16T23:08:57.881Z,10.75
2023-04-16T23:11:24.429Z,13.10
2023-04-16T23:13:51.166Z,12.77
2023-04-16T23:16:17.692Z,10.15
2023-04-16T23:18:44.196Z,9.98
2023-04-16T23:21:11.706Z,9.77
2023-04-16T23:23:38.126Z,11.95
2023-04-16T23:26:04.883Z,13.20
2023-04-16T23:28:31.394Z,9.93
2023-04-16T23:30:57.938Z,11.55
2023-04-16T23:33:24.451Z,14.18
2023-04-16T23:35:50.920Z,10.13
2023-04-16T23:38:17.335Z,10.60
2023-04-16T23:40:43.824Z,8.73
2023-04-16T23:43:17.249Z,12.38
2023-04-16T23:45:43.800Z,9.55
2023-04-16T23:48:12.498Z,15.18
2023-04-16T23:50:38.946Z,14.30
2023-04-16T23:53:05.522Z,12.38
2023-04-16T23:55:31.978Z,9.88
2023-04-16T23:57:58.455Z,14.25
